createdAt,value
2019-01-26T00:00:43.750Z,-3.33
2019-01-26T00:03:12.255Z,-3.35
2019-01-26T00:05:40.708Z,-3.34
2019-01-26T00:08:09.145Z,-3.35
2019-01-26T00:10:37.598Z,-3.33
2019-01-26T00:13:06.033Z,-3.32
2019-01-26T00:15:34.613Z,-3.32
2019-01-26T00:18:03.135Z,-3.30
2019-01-26T00:20:36.318Z,-3.30
2019-01-26T00:23:01.738Z,-3.28
2019-01-26T00:25:30.194Z,-3.23
2019-01-26T00:27:58.624Z,-3.21
2019-01-26T00:30:27.089Z,-3.17
2019-01-26T00:32:55.519Z,-3.16
2019-01-26T00:35:23.975Z,-3.15
2019-01-26T00:37:52.414Z,-3.12
2019-01-26T00:40:20.937Z,-3.09
2019-01-26T00:42:49.437Z,-3.08
2019-01-26T00:45:17.956Z,-3.06
2019-01-26T00:47:46.395Z,-3.04
2019-01-26T00:50:15.635Z,-3.03
2019-01-26T00:52:44.143Z,-3.03
2019-01-26T00:55:13.000Z,-3.01
2019-01-26T00:57:41.527Z,-2.98
2019-01-26T01:00:13.129Z,-2.98
2019-01-26T01:02:41.650Z,-2.99
2019-01-26T01:05:10.219Z,-2.99
2019-01-26T01:07:38.689Z,-2.98
2019-01-26T01:10:10.528Z,-2.97
2019-01-26T01:12:38.983Z,-2.96
2019-01-26T01:15:16.446Z,-2.95
2019-01-26T01:17:44.964Z,-2.95
2019-01-26T01:20:14.039Z,-2.95
2019-01-26T01:22:42.633Z,-2.93
2019-01-26T01:25:13.400Z,-2.92
2019-01-26T01:27:41.930Z,-2.92
2019-01-26T01:30:13.530Z,-2.92
2019-01-26T01:32:42.127Z,-2.91
2019-01-26T01:35:10.705Z,-2.89
2019-01-26T01:37:39.159Z,-2.88
2019-01-26T01:40:09.715Z,-2.88
2019-01-26T01:42:38.171Z,-2.86
2019-01-26T01:45:09.904Z,-2.85
2019-01-26T01:47:38.441Z,-2.85
2019-01-26T01:50:08.790Z,-2.84
2019-01-26T01:52:37.390Z,-2.82
2019-01-26T01:55:08.667Z,-2.81
2019-01-26T01:57:37.118Z,-2.74
2019-01-26T02:00:19.386Z,-2.67
2019-01-26T02:02:47.910Z,-2.62
2019-01-26T02:05:16.707Z,-2.60
2019-01-26T02:07:45.249Z,-2.62
2019-01-26T02:10:16.592Z,-2.62
2019-01-26T02:12:45.120Z,-2.63
2019-01-26T02:15:14.385Z,-2.64
2019-01-26T02:17:42.926Z,-2.63
2019-01-26T02:20:13.983Z,-2.62
2019-01-26T02:22:42.501Z,-2.60
2019-01-26T02:25:11.065Z,-2.61
2019-01-26T02:27:39.890Z,-2.58
2019-01-26T02:30:14.087Z,-2.58
2019-01-26T02:32:42.533Z,-2.58
2019-01-26T02:35:11.107Z,-2.56
2019-01-26T02:37:39.557Z,-2.55
2019-01-26T02:40:12.826Z,-2.55
2019-01-26T02:42:41.348Z,-2.53
2019-01-26T02:45:12.017Z,-2.51
2019-01-26T02:47:40.611Z,-2.52
2019-01-26T02:50:12.209Z,-2.51
2019-01-26T02:52:40.731Z,-2.51
2019-01-26T02:55:09.293Z,-2.48
2019-01-26T02:57:37.818Z,-2.47
2019-01-26T03:00:12.068Z,-2.45
2019-01-26T03:02:40.597Z,-2.43
2019-01-26T03:05:09.159Z,-2.42
2019-01-26T03:07:37.615Z,-2.37
2019-01-26T03:10:09.415Z,-2.35
2019-01-26T03:12:37.889Z,-2.29
2019-01-26T03:15:09.730Z,-2.29
2019-01-26T03:17:38.160Z,-2.28
2019-01-26T03:20:09.518Z,-2.29
2019-01-26T03:22:37.949Z,-2.30
2019-01-26T03:25:08.242Z,-2.30
2019-01-26T03:27:36.744Z,-2.29
2019-01-26T03:30:08.372Z,-2.28
2019-01-26T03:32:36.789Z,-2.29
2019-01-26T03:35:06.177Z,-2.27
2019-01-26T03:37:34.604Z,-2.27
2019-01-26T03:40:03.200Z,-2.26
2019-01-26T03:42:31.794Z,-2.24
2019-01-26T03:45:00.359Z,-2.23
2019-01-26T03:47:29.224Z,-2.22
2019-01-26T03:49:57.679Z,-2.21
2019-01-26T03:52:26.110Z,-2.21
2019-01-26T03:54:54.569Z,-2.17
2019-01-26T03:57:23.070Z,-2.18
2019-01-26T03:59:51.523Z,-2.16
2019-01-26T04:02:19.940Z,-2.14
2019-01-26T04:04:48.393Z,-2.12
2019-01-26T04:07:16.818Z,-2.12
2019-01-26T04:09:45.276Z,-2.10
2019-01-26T04:12:13.706Z,-2.11
2019-01-26T04:14:42.166Z,-2.09
2019-01-26T04:17:10.590Z,-2.09
2019-01-26T04:19:39.045Z,-2.06
2019-01-26T04:22:07.560Z,-2.05
2019-01-26T04:24:36.011Z,-2.04
2019-01-26T04:27:04.579Z,-2.04
2019-01-26T04:29:33.012Z,-2.03
2019-01-26T04:32:01.466Z,-2.01
2019-01-26T04:34:29.895Z,-1.99
2019-01-26T04:36:58.364Z,-1.96
2019-01-26T04:39:26.791Z,-1.94
2019-01-26T04:41:55.253Z,-1.91
2019-01-26T04:44:23.674Z,-1.87
2019-01-26T04:46:52.134Z,-1.83
2019-01-26T04:49:20.564Z,-1.79
2019-01-26T04:51:49.019Z,-1.76
2019-01-26T04:54:17.452Z,-1.72
2019-01-26T04:56:45.978Z,-1.61
2019-01-26T04:59:14.405Z,-1.57
2019-01-26T05:01:42.860Z,-1.54
2019-01-26T05:04:11.431Z,-1.47
2019-01-26T05:06:39.886Z,-1.40
2019-01-26T05:09:08.688Z,-1.32
2019-01-26T05:11:37.144Z,-1.23
2019-01-26T05:14:05.648Z,-1.18
2019-01-26T05:16:34.107Z,-1.14
2019-01-26T05:19:02.526Z,-1.11
2019-01-26T05:21:30.986Z,-1.08
2019-01-26T05:23:59.423Z,-1.06
2019-01-26T05:26:27.882Z,-1.06
2019-01-26T05:28:56.300Z,-0.98
2019-01-26T05:31:24.829Z,-0.88
2019-01-26T05:33:53.262Z,-0.85
2019-01-26T05:36:21.743Z,-0.82
2019-01-26T05:38:50.172Z,-0.79
2019-01-26T05:41:18.603Z,-0.79
2019-01-26T05:43:47.070Z,-0.71
2019-01-26T05:46:15.491Z,-0.69
2019-01-26T05:48:43.952Z,-0.70
2019-01-26T05:51:12.380Z,-0.67
2019-01-26T05:53:40.825Z,-0.64
2019-01-26T05:56:09.326Z,-0.62
2019-01-26T05:58:37.783Z,-0.59
2019-01-26T06:01:06.279Z,-0.57
2019-01-26T06:03:34.729Z,-0.45
2019-01-26T06:06:03.222Z,-0.41
2019-01-26T06:08:31.675Z,-0.43
2019-01-26T06:11:00.573Z,-0.38
2019-01-26T06:13:29.027Z,-0.33
2019-01-26T06:15:57.453Z,-0.30
2019-01-26T06:18:25.908Z,-0.26
2019-01-26T06:20:54.331Z,-0.30
2019-01-26T06:23:22.795Z,-0.30
2019-01-26T06:25:51.217Z,-0.33
2019-01-26T06:28:19.669Z,-0.31
2019-01-26T06:30:48.097Z,-0.29
2019-01-26T06:33:16.555Z,-0.29
2019-01-26T06:35:44.979Z,-0.28
2019-01-26T06:38:13.494Z,-0.23
2019-01-26T06:40:41.921Z,-0.23
2019-01-26T06:43:10.378Z,-0.27
2019-01-26T06:45:38.806Z,-0.31
2019-01-26T06:48:07.256Z,-0.29
2019-01-26T06:50:35.688Z,-0.26
2019-01-26T06:53:04.109Z,-0.15
2019-01-26T06:55:32.556Z,-0.11
2019-01-26T06:58:00.974Z,-0.07
2019-01-26T07:00:30.276Z,-0.02
2019-01-26T07:02:58.758Z,0.03
2019-01-26T07:05:34.470Z,0.02
2019-01-26T07:08:02.894Z,0.12
2019-01-26T07:10:31.334Z,0.17
2019-01-26T07:12:59.753Z,0.26
2019-01-26T07:15:28.205Z,0.36
2019-01-26T07:17:56.620Z,0.42
2019-01-26T07:20:25.066Z,0.57
2019-01-26T07:22:53.557Z,0.59
2019-01-26T07:25:22.072Z,0.62
2019-01-26T07:27:50.488Z,0.65
2019-01-26T07:30:21.676Z,0.66
2019-01-26T07:32:50.167Z,0.78
2019-01-26T07:35:18.677Z,0.80
2019-01-26T07:37:47.364Z,0.84
2019-01-26T07:40:21.121Z,0.81
2019-01-26T07:42:49.601Z,0.75
2019-01-26T07:45:18.382Z,0.81
2019-01-26T07:47:46.865Z,0.86
2019-01-26T07:50:18.820Z,0.91
2019-01-26T07:52:47.312Z,0.93
2019-01-26T07:55:15.884Z,0.93
2019-01-26T07:57:44.379Z,0.94
2019-01-26T08:00:18.825Z,0.95
2019-01-26T08:02:47.241Z,0.91
2019-01-26T08:05:15.756Z,0.96
2019-01-26T08:07:44.241Z,1.06
2019-01-26T08:10:18.694Z,1.09
2019-01-26T08:12:47.114Z,1.14
2019-01-26T08:15:24.457Z,1.13
2019-01-26T08:17:52.879Z,1.18
2019-01-26T08:20:21.966Z,1.19
2019-01-26T08:22:50.382Z,1.20
2019-01-26T08:25:18.901Z,1.26
2019-01-26T08:27:47.853Z,1.30
2019-01-26T08:30:21.264Z,1.32
2019-01-26T08:32:50.144Z,1.34
2019-01-26T08:35:18.989Z,1.42
2019-01-26T08:37:47.875Z,1.45
2019-01-26T08:40:18.427Z,1.48
2019-01-26T08:42:46.868Z,1.48
2019-01-26T08:45:16.220Z,1.55
2019-01-26T08:47:44.735Z,1.52
2019-01-26T08:50:21.480Z,1.55
2019-01-26T08:52:50.056Z,1.50
2019-01-26T08:55:18.731Z,1.48
2019-01-26T08:57:47.282Z,1.48
2019-01-26T09:00:23.741Z,1.48
2019-01-26T09:02:54.960Z,1.51
2019-01-26T09:05:25.355Z,1.52
2019-01-26T09:07:53.800Z,1.49
2019-01-26T09:10:22.210Z,1.55
2019-01-26T09:12:50.647Z,1.56
2019-01-26T09:15:19.059Z,1.61
2019-01-26T09:17:47.566Z,1.67
2019-01-26T09:20:17.424Z,1.70
2019-01-26T09:22:45.862Z,1.77
2019-01-26T09:25:14.420Z,1.81
2019-01-26T09:27:43.136Z,1.83
2019-01-26T09:30:17.045Z,1.90
2019-01-26T09:32:45.558Z,1.95
2019-01-26T09:35:14.043Z,2.01
2019-01-26T09:37:42.549Z,2.05
2019-01-26T09:40:14.512Z,2.10
2019-01-26T09:42:43.018Z,2.16
2019-01-26T09:45:17.194Z,2.21
2019-01-26T09:47:45.968Z,2.27
2019-01-26T09:50:14.926Z,2.31
2019-01-26T09:52:43.410Z,2.36
2019-01-26T09:55:15.024Z,2.36
2019-01-26T09:57:43.571Z,2.36
2019-01-26T10:00:23.568Z,2.39
2019-01-26T10:02:52.122Z,2.46
2019-01-26T10:05:20.641Z,2.49
2019-01-26T10:07:50.099Z,2.56
2019-01-26T10:10:19.775Z,2.64
2019-01-26T10:12:48.426Z,2.69
2019-01-26T10:15:20.041Z,2.72
2019-01-26T10:17:48.874Z,2.73
2019-01-26T10:20:20.348Z,2.65
2019-01-26T10:22:49.096Z,2.63
2019-01-26T10:25:18.474Z,2.68
2019-01-26T10:27:46.960Z,2.72
2019-01-26T10:30:25.937Z,2.79
2019-01-26T10:32:54.482Z,2.82
2019-01-26T10:35:24.642Z,2.86
2019-01-26T10:37:53.390Z,2.91
2019-01-26T10:40:29.742Z,2.92
2019-01-26T10:42:58.322Z,2.88
2019-01-26T10:45:28.070Z,2.93
2019-01-26T10:47:56.951Z,2.97
2019-01-26T10:50:25.735Z,2.99
2019-01-26T10:52:54.481Z,3.07
2019-01-26T10:55:23.260Z,3.12
2019-01-26T10:57:51.909Z,3.23
2019-01-26T11:00:21.960Z,3.32
2019-01-26T11:02:50.909Z,3.37
2019-01-26T11:05:19.692Z,3.45
2019-01-26T11:07:48.450Z,3.46
2019-01-26T11:10:17.220Z,3.41
2019-01-26T11:12:45.776Z,3.37
2019-01-26T11:15:14.546Z,3.34
2019-01-26T11:17:43.096Z,3.32
2019-01-26T11:20:16.045Z,3.33
2019-01-26T11:22:44.656Z,3.28
2019-01-26T11:25:13.839Z,3.28
2019-01-26T11:27:42.390Z,3.29
2019-01-26T11:30:18.780Z,3.29
2019-01-26T11:32:47.529Z,3.30
2019-01-26T11:35:18.409Z,3.33
2019-01-26T11:37:47.161Z,3.33
2019-01-26T11:40:18.079Z,3.41
2019-01-26T11:42:46.993Z,3.41
2019-01-26T11:45:21.287Z,3.41
2019-01-26T11:47:50.005Z,3.39
2019-01-26T11:50:38.605Z,3.41
2019-01-26T11:53:07.472Z,3.41
2019-01-26T11:55:38.290Z,3.40
2019-01-26T11:58:07.037Z,3.42
2019-01-26T12:00:49.678Z,3.46
2019-01-26T12:03:22.794Z,3.56
2019-01-26T12:05:56.580Z,3.54
2019-01-26T12:08:25.766Z,3.54
2019-01-26T12:10:54.544Z,3.59
2019-01-26T12:13:23.298Z,3.51
2019-01-26T12:15:52.099Z,3.51
2019-01-26T12:18:21.411Z,3.54
2019-01-26T12:20:50.174Z,3.52
2019-01-26T12:23:18.660Z,3.44
2019-01-26T12:25:47.404Z,3.44
2019-01-26T12:28:16.183Z,3.43
2019-01-26T12:30:44.928Z,3.38
2019-01-26T12:33:13.828Z,3.38
2019-01-26T12:35:42.477Z,3.33
2019-01-26T12:38:11.259Z,3.29
2019-01-26T12:40:40.042Z,3.34
2019-01-26T12:43:09.150Z,3.47
2019-01-26T12:45:38.493Z,3.51
2019-01-26T12:48:07.410Z,3.51
2019-01-26T12:50:36.615Z,3.53
2019-01-26T12:53:05.902Z,3.52
2019-01-26T12:55:34.858Z,3.51
2019-01-26T12:58:03.843Z,3.48
2019-01-26T13:00:32.819Z,3.44
2019-01-26T13:03:01.728Z,3.35
2019-01-26T13:05:30.610Z,3.26
2019-01-26T13:07:59.692Z,3.26
2019-01-26T13:10:43.585Z,3.23
2019-01-26T13:13:13.302Z,3.13
2019-01-26T13:15:42.635Z,3.13
2019-01-26T13:18:12.247Z,3.15
2019-01-26T13:20:41.532Z,3.14
2019-01-26T13:23:10.500Z,3.12
2019-01-26T13:25:40.110Z,3.11
2019-01-26T13:28:09.415Z,3.11
2019-01-26T13:30:38.915Z,3.04
2019-01-26T13:33:08.364Z,3.04
2019-01-26T13:35:37.553Z,3.03
2019-01-26T13:38:06.807Z,3.00
2019-01-26T13:40:37.211Z,3.01
2019-01-26T13:43:06.865Z,3.01
2019-01-26T13:45:36.058Z,3.06
2019-01-26T13:48:06.022Z,3.12
2019-01-26T13:50:35.714Z,3.26
2019-01-26T13:53:04.945Z,3.32
2019-01-26T13:55:34.174Z,3.37
2019-01-26T13:58:03.072Z,3.38
2019-01-26T14:00:37.033Z,3.37
2019-01-26T14:03:06.301Z,3.37
2019-01-26T14:05:35.281Z,3.29
2019-01-26T14:08:04.138Z,3.25
2019-01-26T14:10:33.022Z,3.25
2019-01-26T14:13:01.881Z,3.07
2019-01-26T14:15:30.750Z,3.07
2019-01-26T14:17:59.606Z,2.94
2019-01-26T14:20:29.414Z,2.80
2019-01-26T14:22:58.629Z,2.80
2019-01-26T14:25:27.800Z,2.80
2019-01-26T14:27:56.865Z,2.77
2019-01-26T14:30:40.454Z,2.74
2019-01-26T14:33:09.342Z,2.65
2019-01-26T14:35:39.507Z,2.65
2019-01-26T14:38:08.945Z,2.61
2019-01-26T14:40:37.979Z,2.58
2019-01-26T14:43:06.729Z,2.53
2019-01-26T14:45:37.331Z,2.50
2019-01-26T14:48:06.189Z,2.47
2019-01-26T14:50:35.083Z,2.45
2019-01-26T14:53:04.149Z,2.44
2019-01-26T14:55:33.038Z,2.43
2019-01-26T14:58:01.894Z,2.38
2019-01-26T15:00:38.252Z,2.33
2019-01-26T15:03:07.220Z,2.28
2019-01-26T15:05:35.999Z,2.22
2019-01-26T15:08:04.848Z,2.16
2019-01-26T15:10:33.639Z,2.10
2019-01-26T15:13:02.623Z,2.06
2019-01-26T15:15:32.130Z,2.02
2019-01-26T15:18:01.531Z,1.90
2019-01-26T15:20:36.060Z,1.90
2019-01-26T15:23:07.239Z,1.85
2019-01-26T15:25:37.750Z,1.83
2019-01-26T15:28:08.138Z,1.84
2019-01-26T15:30:39.311Z,1.80
2019-01-26T15:33:09.299Z,1.80
2019-01-26T15:35:38.658Z,1.77
2019-01-26T15:38:08.559Z,1.71
2019-01-26T15:40:38.306Z,1.66
2019-01-26T15:43:07.814Z,1.63
2019-01-26T15:45:42.657Z,1.66
2019-01-26T15:48:12.067Z,1.67
2019-01-26T15:50:42.061Z,1.65
2019-01-26T15:53:11.529Z,1.62
2019-01-26T15:55:41.273Z,1.63
2019-01-26T15:58:10.888Z,1.63
2019-01-26T16:00:42.151Z,1.61
2019-01-26T16:03:11.772Z,1.63
2019-01-26T16:05:41.310Z,1.67
2019-01-26T16:08:10.743Z,1.67
2019-01-26T16:10:39.781Z,1.67
2019-01-26T16:13:08.744Z,1.68
2019-01-26T16:15:39.005Z,1.74
2019-01-26T16:18:10.430Z,1.71
2019-01-26T16:20:39.817Z,1.64
2019-01-26T16:23:09.767Z,1.66
2019-01-26T16:25:39.452Z,1.70
2019-01-26T16:28:09.156Z,1.72
2019-01-26T16:30:39.106Z,1.71
2019-01-26T16:33:08.715Z,1.68
2019-01-26T16:35:37.708Z,1.69
2019-01-26T16:38:07.458Z,1.68
2019-01-26T16:40:37.111Z,1.71
2019-01-26T16:43:06.704Z,1.70
2019-01-26T16:45:38.330Z,1.68
2019-01-26T16:48:09.261Z,1.66
2019-01-26T16:50:38.882Z,1.67
2019-01-26T16:53:08.683Z,1.63
2019-01-26T16:55:37.888Z,1.59
2019-01-26T16:58:07.627Z,1.55
2019-01-26T17:00:42.011Z,1.53
2019-01-26T17:03:12.093Z,1.53
2019-01-26T17:05:42.158Z,1.55
2019-01-26T17:08:11.657Z,1.54
2019-01-26T17:10:40.880Z,1.56
2019-01-26T17:13:10.723Z,1.58
2019-01-26T17:15:40.426Z,1.57
2019-01-26T17:18:13.822Z,1.56
2019-01-26T17:20:42.135Z,1.55
2019-01-26T17:23:11.481Z,1.53
2019-01-26T17:25:40.250Z,1.50
2019-01-26T17:28:09.304Z,1.55
2019-01-26T17:30:42.517Z,1.52
2019-01-26T17:33:11.529Z,1.49
2019-01-26T17:35:40.384Z,1.45
2019-01-26T17:38:09.622Z,1.41
2019-01-26T17:40:38.386Z,1.40
2019-01-26T17:43:06.963Z,1.41
2019-01-26T17:45:35.849Z,1.41
2019-01-26T17:48:05.408Z,1.37
2019-01-26T17:50:41.892Z,1.35
2019-01-26T17:53:07.328Z,1.39
2019-01-26T17:55:37.002Z,1.41
2019-01-26T17:58:06.546Z,1.39
2019-01-26T18:00:38.455Z,1.40
2019-01-26T18:03:08.258Z,1.44
2019-01-26T18:05:37.856Z,1.43
2019-01-26T18:08:07.056Z,1.43
2019-01-26T18:10:36.302Z,1.41
2019-01-26T18:13:06.044Z,1.41
2019-01-26T18:15:35.547Z,1.39
2019-01-26T18:18:05.497Z,1.39
2019-01-26T18:20:35.504Z,1.42
2019-01-26T18:23:05.535Z,1.44
2019-01-26T18:25:41.813Z,1.43
2019-01-26T18:28:11.879Z,1.40
2019-01-26T18:30:42.295Z,1.44
2019-01-26T18:33:12.158Z,1.48
2019-01-26T18:35:41.957Z,1.51
2019-01-26T18:38:11.606Z,1.52
2019-01-26T18:40:41.100Z,1.52
2019-01-26T18:43:10.658Z,1.50
2019-01-26T18:45:40.278Z,1.50
2019-01-26T18:48:09.615Z,1.50
2019-01-26T18:50:44.400Z,1.57
2019-01-26T18:53:14.178Z,1.56
2019-01-26T18:55:43.773Z,1.58
2019-01-26T18:58:13.393Z,1.62
2019-01-26T19:00:45.433Z,1.61
2019-01-26T19:03:23.284Z,1.59
2019-01-26T19:05:54.224Z,1.63
2019-01-26T19:08:24.272Z,1.67
2019-01-26T19:10:54.438Z,1.67
2019-01-26T19:13:24.450Z,1.66
2019-01-26T19:15:54.205Z,1.63
2019-01-26T19:18:24.116Z,1.60
2019-01-26T19:20:54.061Z,1.59
2019-01-26T19:23:24.073Z,1.59
2019-01-26T19:25:54.232Z,1.59
2019-01-26T19:28:24.247Z,1.58
2019-01-26T19:30:55.111Z,1.60
2019-01-26T19:33:25.740Z,1.63
2019-01-26T19:35:56.211Z,1.66
2019-01-26T19:38:26.732Z,1.66
2019-01-26T19:40:56.981Z,1.67
2019-01-26T19:43:27.117Z,1.69
2019-01-26T19:45:57.377Z,1.68
2019-01-26T19:48:27.389Z,1.68
2019-01-26T19:50:57.864Z,1.73
2019-01-26T19:53:28.480Z,1.72
2019-01-26T19:55:58.860Z,1.74
2019-01-26T19:58:29.066Z,1.72
2019-01-26T20:00:59.539Z,1.72
2019-01-26T20:03:29.541Z,1.71
2019-01-26T20:05:59.916Z,1.76
2019-01-26T20:08:30.176Z,1.79
2019-01-26T20:11:00.701Z,1.84
2019-01-26T20:13:30.913Z,1.88
2019-01-26T20:16:01.040Z,1.96
2019-01-26T20:18:31.586Z,2.06
2019-01-26T20:21:02.265Z,2.13
2019-01-26T20:23:32.678Z,2.17
2019-01-26T20:26:03.330Z,2.22
2019-01-26T20:28:33.591Z,2.24
2019-01-26T20:31:03.534Z,2.24
2019-01-26T20:33:33.543Z,2.29
2019-01-26T20:36:04.309Z,2.30
2019-01-26T20:38:34.743Z,2.27
2019-01-26T20:41:04.900Z,2.23
2019-01-26T20:43:35.005Z,2.23
2019-01-26T20:46:05.680Z,2.28
2019-01-26T20:48:36.012Z,2.30
2019-01-26T20:51:06.367Z,2.34
2019-01-26T20:53:36.683Z,2.35
2019-01-26T20:56:06.951Z,2.36
2019-01-26T20:58:37.469Z,2.38
2019-01-26T21:01:07.734Z,2.40
2019-01-26T21:03:37.944Z,2.44
2019-01-26T21:06:08.316Z,2.54
2019-01-26T21:08:38.933Z,2.65
2019-01-26T21:11:09.331Z,2.82
2019-01-26T21:13:39.418Z,2.82
2019-01-26T21:16:09.481Z,2.82
2019-01-26T21:18:39.696Z,2.85
2019-01-26T21:21:10.104Z,2.88
2019-01-26T21:23:39.755Z,2.88
2019-01-26T21:26:09.727Z,2.88
2019-01-26T21:28:39.633Z,2.87
2019-01-26T21:31:09.494Z,2.87
2019-01-26T21:33:39.497Z,2.93
2019-01-26T21:36:09.559Z,2.97
2019-01-26T21:38:39.864Z,2.96
2019-01-26T21:41:09.875Z,2.94
2019-01-26T21:43:39.546Z,2.89
2019-01-26T21:46:09.231Z,2.87
2019-01-26T21:48:39.093Z,2.82
2019-01-26T21:51:08.930Z,2.78
2019-01-26T21:53:38.679Z,2.76
2019-01-26T21:56:08.378Z,2.76
2019-01-26T21:58:37.870Z,2.79
2019-01-26T22:01:07.840Z,2.84
2019-01-26T22:03:37.798Z,2.82
2019-01-26T22:06:08.117Z,2.84
2019-01-26T22:08:37.968Z,2.86
2019-01-26T22:11:07.670Z,2.83
2019-01-26T22:13:37.224Z,2.82
2019-01-26T22:16:06.717Z,2.76
2019-01-26T22:18:35.713Z,2.75
2019-01-26T22:21:04.475Z,2.75
2019-01-26T22:23:33.607Z,2.75
2019-01-26T22:26:02.360Z,2.70
2019-01-26T22:28:31.707Z,2.69
2019-01-26T22:31:00.467Z,2.63
2019-01-26T22:33:29.377Z,2.63
2019-01-26T22:35:58.581Z,2.66
2019-01-26T22:38:27.473Z,2.64
2019-01-26T22:40:56.752Z,2.61
2019-01-26T22:43:25.698Z,2.58
2019-01-26T22:45:54.460Z,2.56
2019-01-26T22:48:23.367Z,2.55
2019-01-26T22:50:52.122Z,2.55
2019-01-26T22:53:20.826Z,2.53
2019-01-26T22:55:49.371Z,2.53
2019-01-26T22:58:17.953Z,2.52
2019-01-26T23:00:51.185Z,2.47
2019-01-26T23:03:25.886Z,2.44
2019-01-26T23:06:13.925Z,2.42
2019-01-26T23:08:42.511Z,2.43
2019-01-26T23:11:16.972Z,2.43
2019-01-26T23:13:48.591Z,2.46
2019-01-26T23:16:36.367Z,2.51
2019-01-26T23:19:23.211Z,2.53
2019-01-26T23:22:20.756Z,2.52
2019-01-26T23:25:13.346Z,2.48
2019-01-26T23:27:50.611Z,2.39
2019-01-26T23:30:37.382Z,2.32
2019-01-26T23:33:06.145Z,2.34
2019-01-26T23:35:34.658Z,2.35
2019-01-26T23:38:03.077Z,2.35
2019-01-26T23:40:31.590Z,2.34
2019-01-26T23:43:00.079Z,2.39
2019-01-26T23:45:28.527Z,2.36
2019-01-26T23:47:56.950Z,2.36
2019-01-26T23:50:25.393Z,2.37
2019-01-26T23:52:53.886Z,2.38
2019-01-26T23:55:22.338Z,2.41
2019-01-26T23:57:50.755Z,2.46
